sensor_id;sensor_type;location;lat;lon;timestamp;temperature;humidity
6964;DHT22;3522;50.856;7.278;2023-07-28T00:01:24;16.30;99.90
6964;DHT22;3522;50.856;7.278;2023-07-28T00:03:50;16.30;99.90
6964;DHT22;3522;50.856;7.278;2023-07-28T00:06:18;16.30;99.90
6964;DHT22;3522;50.856;7.278;2023-07-28T00:08:45;16.30;99.90
6964;DHT22;3522;50.856;7.278;2023-07-28T00:11:12;16.30;99.90
6964;DHT22;3522;50.856;7.278;2023-07-28T00:13:39;16.30;99.90
6964;DHT22;3522;50.856;7.278;2023-07-28T00:16:06;16.20;99.90
6964;DHT22;3522;50.856;7.278;2023-07-28T00:18:33;16.30;99.90
6964;DHT22;3522;50.856;7.278;2023-07-28T00:21:00;16.20;99.90
6964;DHT22;3522;50.856;7.278;2023-07-28T00:23:28;16.30;99.90
6964;DHT22;3522;50.856;7.278;2023-07-28T00:25:54;16.30;99.90
6964;DHT22;3522;50.856;7.278;2023-07-28T00:28:21;16.20;99.90
6964;DHT22;3522;50.856;7.278;2023-07-28T00:30:48;16.20;99.90
6964;DHT22;3522;50.856;7.278;2023-07-28T00:33:15;16.30;99.90
6964;DHT22;3522;50.856;7.278;2023-07-28T00:35:42;16.30;99.90
6964;DHT22;3522;50.856;7.278;2023-07-28T00:38:08;16.20;99.90
6964;DHT22;3522;50.856;7.278;2023-07-28T00:40:36;16.30;99.90
6964;DHT22;3522;50.856;7.278;2023-07-28T00:43:02;16.30;99.90
6964;DHT22;3522;50.856;7.278;2023-07-28T00:45:28;16.30;99.90
6964;DHT22;3522;50.856;7.278;2023-07-28T00:47:55;16.30;99.90
6964;DHT22;3522;50.856;7.278;2023-07-28T00:50:23;16.30;99.90
6964;DHT22;3522;50.856;7.278;2023-07-28T00:52:50;16.30;99.90
6964;DHT22;3522;50.856;7.278;2023-07-28T00:55:17;16.30;99.90
6964;DHT22;3522;50.856;7.278;2023-07-28T00:57:45;16.30;99.90
6964;DHT22;3522;50.856;7.278;2023-07-28T01:00:12;16.30;99.90
6964;DHT22;3522;50.856;7.278;2023-07-28T01:02:38;16.30;99.90
6964;DHT22;3522;50.856;7.278;2023-07-28T01:05:05;16.30;99.90
6964;DHT22;3522;50.856;7.278;2023-07-28T01:07:34;16.30;99.90
6964;DHT22;3522;50.856;7.278;2023-07-28T01:10:02;16.30;99.90
6964;DHT22;3522;50.856;7.278;2023-07-28T01:12:32;16.30;99.90
6964;DHT22;3522;50.856;7.278;2023-07-28T01:15:00;16.30;99.90
6964;DHT22;3522;50.856;7.278;2023-07-28T01:17:26;16.30;99.90
6964;DHT22;3522;50.856;7.278;2023-07-28T01:19:53;16.30;99.90
6964;DHT22;3522;50.856;7.278;2023-07-28T01:22:28;16.30;99.90
6964;DHT22;3522;50.856;7.278;2023-07-28T01:25:01;16.30;99.90
6964;DHT22;3522;50.856;7.278;2023-07-28T01:27:33;16.30;99.90
6964;DHT22;3522;50.856;7.278;2023-07-28T01:30:00;16.30;99.90
6964;DHT22;3522;50.856;7.278;2023-07-28T01:32:27;16.30;99.90
6964;DHT22;3522;50.856;7.278;2023-07-28T01:34:54;16.30;99.90
6964;DHT22;3522;50.856;7.278;2023-07-28T01:37:20;16.30;99.90
6964;DHT22;3522;50.856;7.278;2023-07-28T01:39:47;16.30;99.90
6964;DHT22;3522;50.856;7.278;2023-07-28T01:42:13;16.30;99.90
6964;DHT22;3522;50.856;7.278;2023-07-28T01:44:41;16.30;99.90
6964;DHT22;3522;50.856;7.278;2023-07-28T01:47:08;16.30;99.90
6964;DHT22;3522;50.856;7.278;2023-07-28T01:49:34;16.30;99.90
6964;DHT22;3522;50.856;7.278;2023-07-28T01:52:01;16.30;99.90
6964;DHT22;3522;50.856;7.278;2023-07-28T01:54:27;16.30;99.90
6964;DHT22;3522;50.856;7.278;2023-07-28T01:56:54;16.30;99.90
6964;DHT22;3522;50.856;7.278;2023-07-28T01:59:21;16.30;99.90
6964;DHT22;3522;50.856;7.278;2023-07-28T02:01:49;16.30;99.90
6964;DHT22;3522;50.856;7.278;2023-07-28T02:04:15;16.30;99.90
6964;DHT22;3522;50.856;7.278;2023-07-28T02:06:42;16.30;99.90
6964;DHT22;3522;50.856;7.278;2023-07-28T02:09:08;16.30;99.90
6964;DHT22;3522;50.856;7.278;2023-07-28T02:11:35;16.30;99.90
6964;DHT22;3522;50.856;7.278;2023-07-28T02:14:01;16.30;99.90
6964;DHT22;3522;50.856;7.278;2023-07-28T02:16:28;16.30;99.90
6964;DHT22;3522;50.856;7.278;2023-07-28T02:18:57;16.30;99.90
6964;DHT22;3522;50.856;7.278;2023-07-28T02:21:24;16.30;99.90
6964;DHT22;3522;50.856;7.278;2023-07-28T02:23:50;16.30;99.90
6964;DHT22;3522;50.856;7.278;2023-07-28T02:26:17;16.30;99.90
6964;DHT22;3522;50.856;7.278;2023-07-28T02:28:43;16.30;99.90
6964;DHT22;3522;50.856;7.278;2023-07-28T02:31:10;16.30;99.90
6964;DHT22;3522;50.856;7.278;2023-07-28T02:33:36;16.30;99.90
6964;DHT22;3522;50.856;7.278;2023-07-28T02:36:04;16.30;99.90
6964;DHT22;3522;50.856;7.278;2023-07-28T02:38:31;16.30;99.90
6964;DHT22;3522;50.856;7.278;2023-07-28T02:40:58;16.30;99.90
6964;DHT22;3522;50.856;7.278;2023-07-28T02:43:24;16.30;99.90
6964;DHT22;3522;50.856;7.278;2023-07-28T02:45:53;16.30;99.90
6964;DHT22;3522;50.856;7.278;2023-07-28T02:48:19;16.30;99.90
6964;DHT22;3522;50.856;7.278;2023-07-28T02:50:46;16.30;99.90
6964;DHT22;3522;50.856;7.278;2023-07-28T02:53:14;16.30;99.90
6964;DHT22;3522;50.856;7.278;2023-07-28T02:55:41;16.30;99.90
6964;DHT22;3522;50.856;7.278;2023-07-28T02:58:08;16.30;99.90
6964;DHT22;3522;50.856;7.278;2023-07-28T03:00:36;16.30;99.90
6964;DHT22;3522;50.856;7.278;2023-07-28T03:03:03;16.30;99.90
6964;DHT22;3522;50.856;7.278;2023-07-28T03:05:30;16.30;99.90
6964;DHT22;3522;50.856;7.278;2023-07-28T03:07:57;16.30;99.90
6964;DHT22;3522;50.856;7.278;2023-07-28T03:10:25;16.30;99.90
6964;DHT22;3522;50.856;7.278;2023-07-28T03:12:52;16.30;99.90
6964;DHT22;3522;50.856;7.278;2023-07-28T03:15:18;16.30;99.90
6964;DHT22;3522;50.856;7.278;2023-07-28T03:17:47;16.40;99.90
6964;DHT22;3522;50.856;7.278;2023-07-28T03:20:14;16.40;99.90
6964;DHT22;3522;50.856;7.278;2023-07-28T03:22:40;16.40;99.90
6964;DHT22;3522;50.856;7.278;2023-07-28T03:25:07;16.30;99.90
6964;DHT22;3522;50.856;7.278;2023-07-28T03:27:35;16.30;99.90
6964;DHT22;3522;50.856;7.278;2023-07-28T03:30:02;16.30;99.90
6964;DHT22;3522;50.856;7.278;2023-07-28T03:32:32;16.30;99.90
6964;DHT22;3522;50.856;7.278;2023-07-28T03:34:58;16.30;99.90
6964;DHT22;3522;50.856;7.278;2023-07-28T03:37:25;16.30;99.90
6964;DHT22;3522;50.856;7.278;2023-07-28T03:39:51;16.30;99.90
6964;DHT22;3522;50.856;7.278;2023-07-28T03:42:18;16.30;99.90
6964;DHT22;3522;50.856;7.278;2023-07-28T03:44:46;16.30;99.90
6964;DHT22;3522;50.856;7.278;2023-07-28T03:47:12;16.40;99.90
6964;DHT22;3522;50.856;7.278;2023-07-28T03:49:39;16.40;99.90
6964;DHT22;3522;50.856;7.278;2023-07-28T03:52:05;16.30;99.90
6964;DHT22;3522;50.856;7.278;2023-07-28T03:54:32;16.30;99.90
6964;DHT22;3522;50.856;7.278;2023-07-28T03:56:59;16.40;99.90
6964;DHT22;3522;50.856;7.278;2023-07-28T03:59:25;16.40;99.90
6964;DHT22;3522;50.856;7.278;2023-07-28T04:01:53;16.40;99.90
6964;DHT22;3522;50.856;7.278;2023-07-28T04:04:20;16.40;99.90
6964;DHT22;3522;50.856;7.278;2023-07-28T04:06:47;16.40;99.90
6964;DHT22;3522;50.856;7.278;2023-07-28T04:09:15;16.40;99.90
6964;DHT22;3522;50.856;7.278;2023-07-28T04:11:42;16.40;99.90
6964;DHT22;3522;50.856;7.278;2023-07-28T04:14:09;16.40;99.90
6964;DHT22;3522;50.856;7.278;2023-07-28T04:16:35;16.40;99.90
6964;DHT22;3522;50.856;7.278;2023-07-28T04:19:03;16.40;99.90
6964;DHT22;3522;50.856;7.278;2023-07-28T04:21:30;16.40;99.90
6964;DHT22;3522;50.856;7.278;2023-07-28T04:23:57;16.40;99.90
6964;DHT22;3522;50.856;7.278;2023-07-28T04:26:23;16.40;99.90
6964;DHT22;3522;50.856;7.278;2023-07-28T04:28:50;16.40;99.90
6964;DHT22;3522;50.856;7.278;2023-07-28T04:31:17;16.50;99.90
6964;DHT22;3522;50.856;7.278;2023-07-28T04:33:43;16.50;99.90
6964;DHT22;3522;50.856;7.278;2023-07-28T04:36:11;16.50;99.90
6964;DHT22;3522;50.856;7.278;2023-07-28T04:38:38;16.50;99.90
6964;DHT22;3522;50.856;7.278;2023-07-28T04:41:04;16.50;99.90
6964;DHT22;3522;50.856;7.278;2023-07-28T04:43:31;16.50;99.90
6964;DHT22;3522;50.856;7.278;2023-07-28T04:45:57;16.50;99.90
6964;DHT22;3522;50.856;7.278;2023-07-28T04:48:24;16.50;99.90
6964;DHT22;3522;50.856;7.278;2023-07-28T04:50:50;16.50;99.90
6964;DHT22;3522;50.856;7.278;2023-07-28T04:53:19;16.50;99.90
6964;DHT22;3522;50.856;7.278;2023-07-28T04:55:45;16.50;99.90
6964;DHT22;3522;50.856;7.278;2023-07-28T04:58:12;16.60;99.90
6964;DHT22;3522;50.856;7.278;2023-07-28T05:00:38;16.60;99.90
6964;DHT22;3522;50.856;7.278;2023-07-28T05:03:05;16.60;99.90
6964;DHT22;3522;50.856;7.278;2023-07-28T05:05:31;16.60;99.90
6964;DHT22;3522;50.856;7.278;2023-07-28T05:07:58;16.60;99.90
6964;DHT22;3522;50.856;7.278;2023-07-28T05:10:26;16.60;99.90
6964;DHT22;3522;50.856;7.278;2023-07-28T05:12:52;16.60;99.90
6964;DHT22;3522;50.856;7.278;2023-07-28T05:15:19;16.70;99.90
6964;DHT22;3522;50.856;7.278;2023-07-28T05:17:45;16.70;99.90
6964;DHT22;3522;50.856;7.278;2023-07-28T05:20:12;16.70;99.90
6964;DHT22;3522;50.856;7.278;2023-07-28T05:22:39;16.70;99.90
6964;DHT22;3522;50.856;7.278;2023-07-28T05:25:05;16.70;99.90
6964;DHT22;3522;50.856;7.278;2023-07-28T05:27:34;16.80;99.90
6964;DHT22;3522;50.856;7.278;2023-07-28T05:30:00;16.80;99.90
6964;DHT22;3522;50.856;7.278;2023-07-28T05:32:27;16.80;99.90
6964;DHT22;3522;50.856;7.278;2023-07-28T05:34:53;16.80;99.90
6964;DHT22;3522;50.856;7.278;2023-07-28T05:37:20;16.80;99.90
6964;DHT22;3522;50.856;7.278;2023-07-28T05:39:46;16.90;99.90
6964;DHT22;3522;50.856;7.278;2023-07-28T05:42:13;16.80;99.90
6964;DHT22;3522;50.856;7.278;2023-07-28T05:44:41;16.80;99.90
6964;DHT22;3522;50.856;7.278;2023-07-28T05:47:08;16.80;99.90
6964;DHT22;3522;50.856;7.278;2023-07-28T05:49:34;16.90;99.90
6964;DHT22;3522;50.856;7.278;2023-07-28T05:52:01;16.90;99.90
6964;DHT22;3522;50.856;7.278;2023-07-28T05:54:28;16.90;99.90
6964;DHT22;3522;50.856;7.278;2023-07-28T05:56:54;16.90;99.90
6964;DHT22;3522;50.856;7.278;2023-07-28T05:59:21;16.90;99.90
6964;DHT22;3522;50.856;7.278;2023-07-28T06:01:49;17.00;99.90
6964;DHT22;3522;50.856;7.278;2023-07-28T06:04:15;16.90;99.90
6964;DHT22;3522;50.856;7.278;2023-07-28T06:06:42;17.00;99.90
6964;DHT22;3522;50.856;7.278;2023-07-28T06:09:08;17.00;99.90
6964;DHT22;3522;50.856;7.278;2023-07-28T06:11:35;17.00;99.90
6964;DHT22;3522;50.856;7.278;2023-07-28T06:14:03;17.00;99.90
6964;DHT22;3522;50.856;7.278;2023-07-28T06:16:30;17.10;99.90
6964;DHT22;3522;50.856;7.278;2023-07-28T06:18:58;17.10;99.90
6964;DHT22;3522;50.856;7.278;2023-07-28T06:21:25;17.10;99.90
6964;DHT22;3522;50.856;7.278;2023-07-28T06:23:52;17.10;99.90
6964;DHT22;3522;50.856;7.278;2023-07-28T06:26:18;17.20;99.90
6964;DHT22;3522;50.856;7.278;2023-07-28T06:28:45;17.20;99.90
6964;DHT22;3522;50.856;7.278;2023-07-28T06:31:11;17.20;99.90
6964;DHT22;3522;50.856;7.278;2023-07-28T06:33:38;17.20;99.90
6964;DHT22;3522;50.856;7.278;2023-07-28T06:36:06;17.20;99.90
6964;DHT22;3522;50.856;7.278;2023-07-28T06:38:33;17.20;99.90
6964;DHT22;3522;50.856;7.278;2023-07-28T06:40:59;17.20;99.90
6964;DHT22;3522;50.856;7.278;2023-07-28T06:43:26;17.30;99.90
6964;DHT22;3522;50.856;7.278;2023-07-28T06:45:53;17.30;99.90
6964;DHT22;3522;50.856;7.278;2023-07-28T06:48:19;17.30;99.90
6964;DHT22;3522;50.856;7.278;2023-07-28T06:50:46;17.30;99.90
6964;DHT22;3522;50.856;7.278;2023-07-28T06:53:14;17.30;99.90
6964;DHT22;3522;50.856;7.278;2023-07-28T06:55:42;17.30;99.90
6964;DHT22;3522;50.856;7.278;2023-07-28T06:58:09;17.40;99.90
6964;DHT22;3522;50.856;7.278;2023-07-28T07:00:35;17.50;99.90
6964;DHT22;3522;50.856;7.278;2023-07-28T07:03:02;17.50;99.90
6964;DHT22;3522;50.856;7.278;2023-07-28T07:05:29;17.60;99.90
6964;DHT22;3522;50.856;7.278;2023-07-28T07:07:56;17.60;99.90
6964;DHT22;3522;50.856;7.278;2023-07-28T07:10:24;17.60;99.90
6964;DHT22;3522;50.856;7.278;2023-07-28T07:12:51;17.70;99.90
6964;DHT22;3522;50.856;7.278;2023-07-28T07:15:17;17.70;99.90
6964;DHT22;3522;50.856;7.278;2023-07-28T07:17:44;17.80;99.90
6964;DHT22;3522;50.856;7.278;2023-07-28T07:20:11;17.90;99.90
6964;DHT22;3522;50.856;7.278;2023-07-28T07:22:37;18.00;99.90
6964;DHT22;3522;50.856;7.278;2023-07-28T07:25:04;18.10;99.90
6964;DHT22;3522;50.856;7.278;2023-07-28T07:27:33;18.10;99.90
6964;DHT22;3522;50.856;7.278;2023-07-28T07:30:00;18.20;99.90
6964;DHT22;3522;50.856;7.278;2023-07-28T07:32:26;18.30;99.90
6964;DHT22;3522;50.856;7.278;2023-07-28T07:34:53;18.30;99.90
6964;DHT22;3522;50.856;7.278;2023-07-28T07:37:19;18.40;99.90
6964;DHT22;3522;50.856;7.278;2023-07-28T07:39:46;18.40;99.90
6964;DHT22;3522;50.856;7.278;2023-07-28T07:42:13;18.40;99.90
6964;DHT22;3522;50.856;7.278;2023-07-28T07:44:41;18.30;99.90
6964;DHT22;3522;50.856;7.278;2023-07-28T07:47:11;18.30;99.90
6964;DHT22;3522;50.856;7.278;2023-07-28T07:49:38;18.40;99.90
6964;DHT22;3522;50.856;7.278;2023-07-28T07:52:06;18.40;99.90
6964;DHT22;3522;50.856;7.278;2023-07-28T07:54:32;18.40;99.90
6964;DHT22;3522;50.856;7.278;2023-07-28T07:56:59;18.30;99.90
6964;DHT22;3522;50.856;7.278;2023-07-28T07:59:25;18.30;99.90
6964;DHT22;3522;50.856;7.278;2023-07-28T08:01:57;18.20;99.90
6964;DHT22;3522;50.856;7.278;2023-07-28T08:04:25;18.20;99.90
6964;DHT22;3522;50.856;7.278;2023-07-28T08:06:53;18.30;99.90
6964;DHT22;3522;50.856;7.278;2023-07-28T08:09:19;18.30;99.90
6964;DHT22;3522;50.856;7.278;2023-07-28T08:11:47;18.40;99.90
6964;DHT22;3522;50.856;7.278;2023-07-28T08:14:13;18.40;99.90
6964;DHT22;3522;50.856;7.278;2023-07-28T08:16:40;18.50;99.90
6964;DHT22;3522;50.856;7.278;2023-07-28T08:19:08;18.60;99.90
6964;DHT22;3522;50.856;7.278;2023-07-28T08:21:35;18.80;99.90
6964;DHT22;3522;50.856;7.278;2023-07-28T08:24:02;18.90;99.90
6964;DHT22;3522;50.856;7.278;2023-07-28T08:26:29;19.20;99.90
6964;DHT22;3522;50.856;7.278;2023-07-28T08:28:55;19.30;99.90
6964;DHT22;3522;50.856;7.278;2023-07-28T08:31:22;19.50;99.90
6964;DHT22;3522;50.856;7.278;2023-07-28T08:33:48;19.60;99.90
6964;DHT22;3522;50.856;7.278;2023-07-28T08:36:16;19.80;99.90
6964;DHT22;3522;50.856;7.278;2023-07-28T08:38:43;19.70;99.90
6964;DHT22;3522;50.856;7.278;2023-07-28T08:41:10;19.80;99.90
6964;DHT22;3522;50.856;7.278;2023-07-28T08:43:37;19.80;99.90
6964;DHT22;3522;50.856;7.278;2023-07-28T08:46:04;19.80;99.90
6964;DHT22;3522;50.856;7.278;2023-07-28T08:48:30;19.80;99.90
6964;DHT22;3522;50.856;7.278;2023-07-28T08:50:57;19.80;99.90
6964;DHT22;3522;50.856;7.278;2023-07-28T08:53:25;19.80;99.90
6964;DHT22;3522;50.856;7.278;2023-07-28T08:55:51;19.80;99.90
6964;DHT22;3522;50.856;7.278;2023-07-28T08:58:18;20.00;99.90
6964;DHT22;3522;50.856;7.278;2023-07-28T09:00:46;20.10;99.90
6964;DHT22;3522;50.856;7.278;2023-07-28T09:03:14;20.20;99.90
6964;DHT22;3522;50.856;7.278;2023-07-28T09:05:42;20.30;99.90
6964;DHT22;3522;50.856;7.278;2023-07-28T09:08:08;20.40;99.90
6964;DHT22;3522;50.856;7.278;2023-07-28T09:10:42;20.70;99.90
6964;DHT22;3522;50.856;7.278;2023-07-28T09:13:09;21.10;99.90
6964;DHT22;3522;50.856;7.278;2023-07-28T09:15:37;21.40;99.90
6964;DHT22;3522;50.856;7.278;2023-07-28T09:18:03;21.40;99.90
6964;DHT22;3522;50.856;7.278;2023-07-28T09:20:33;21.50;99.90
6964;DHT22;3522;50.856;7.278;2023-07-28T09:23:00;21.30;99.90
6964;DHT22;3522;50.856;7.278;2023-07-28T09:25:27;21.10;99.90
6964;DHT22;3522;50.856;7.278;2023-07-28T09:27:55;21.00;99.90
6964;DHT22;3522;50.856;7.278;2023-07-28T09:30:23;20.90;99.90
6964;DHT22;3522;50.856;7.278;2023-07-28T09:32:50;20.90;99.90
6964;DHT22;3522;50.856;7.278;2023-07-28T09:35:17;20.90;99.90
6964;DHT22;3522;50.856;7.278;2023-07-28T09:37:44;20.90;99.90
6964;DHT22;3522;50.856;7.278;2023-07-28T09:40:13;21.00;99.90
6964;DHT22;3522;50.856;7.278;2023-07-28T09:42:40;21.00;99.90
6964;DHT22;3522;50.856;7.278;2023-07-28T09:45:08;21.10;99.90
6964;DHT22;3522;50.856;7.278;2023-07-28T09:47:36;21.10;99.90
6964;DHT22;3522;50.856;7.278;2023-07-28T09:50:03;21.00;99.90
6964;DHT22;3522;50.856;7.278;2023-07-28T09:52:31;20.90;99.90
6964;DHT22;3522;50.856;7.278;2023-07-28T09:54:59;20.90;99.90
6964;DHT22;3522;50.856;7.278;2023-07-28T09:57:26;20.80;99.90
6964;DHT22;3522;50.856;7.278;2023-07-28T09:59:54;20.90;99.90
6964;DHT22;3522;50.856;7.278;2023-07-28T10:02:23;20.80;99.90
6964;DHT22;3522;50.856;7.278;2023-07-28T10:04:49;20.90;99.90
6964;DHT22;3522;50.856;7.278;2023-07-28T10:07:16;20.90;99.90
6964;DHT22;3522;50.856;7.278;2023-07-28T10:09:43;20.80;99.90
6964;DHT22;3522;50.856;7.278;2023-07-28T10:12:18;20.90;99.90
6964;DHT22;3522;50.856;7.278;2023-07-28T10:14:46;20.80;99.90
6964;DHT22;3522;50.856;7.278;2023-07-28T10:17:15;20.90;99.90
6964;DHT22;3522;50.856;7.278;2023-07-28T10:19:43;20.80;99.90
6964;DHT22;3522;50.856;7.278;2023-07-28T10:22:10;20.70;99.90
6964;DHT22;3522;50.856;7.278;2023-07-28T10:24:49;20.60;99.90
6964;DHT22;3522;50.856;7.278;2023-07-28T10:27:27;20.70;99.90
6964;DHT22;3522;50.856;7.278;2023-07-28T10:29:55;20.80;99.90
6964;DHT22;3522;50.856;7.278;2023-07-28T10:32:25;20.80;99.90
6964;DHT22;3522;50.856;7.278;2023-07-28T10:34:59;20.80;99.90
6964;DHT22;3522;50.856;7.278;2023-07-28T10:37:26;20.80;99.90
6964;DHT22;3522;50.856;7.278;2023-07-28T10:42:34;20.90;99.90
6964;DHT22;3522;50.856;7.278;2023-07-28T10:45:01;21.10;99.90
6964;DHT22;3522;50.856;7.278;2023-07-28T10:47:28;20.90;99.90
6964;DHT22;3522;50.856;7.278;2023-07-28T10:49:55;21.10;99.90
6964;DHT22;3522;50.856;7.278;2023-07-28T10:52:29;21.10;99.90
6964;DHT22;3522;50.856;7.278;2023-07-28T10:55:13;21.20;99.90
6964;DHT22;3522;50.856;7.278;2023-07-28T10:57:40;21.30;99.90
6964;DHT22;3522;50.856;7.278;2023-07-28T11:00:07;21.60;99.90
6964;DHT22;3522;50.856;7.278;2023-07-28T11:02:36;21.70;99.90
6964;DHT22;3522;50.856;7.278;2023-07-28T11:05:05;22.00;99.90
6964;DHT22;3522;50.856;7.278;2023-07-28T11:07:33;22.50;99.90
6964;DHT22;3522;50.856;7.278;2023-07-28T11:09:59;22.90;99.90
6964;DHT22;3522;50.856;7.278;2023-07-28T11:12:26;23.00;99.90
6964;DHT22;3522;50.856;7.278;2023-07-28T11:14:53;23.20;99.90
6964;DHT22;3522;50.856;7.278;2023-07-28T11:17:20;22.90;99.90
6964;DHT22;3522;50.856;7.278;2023-07-28T11:19:47;22.70;99.90
6964;DHT22;3522;50.856;7.278;2023-07-28T11:22:16;22.60;99.90
6964;DHT22;3522;50.856;7.278;2023-07-28T11:24:44;22.10;99.90
6964;DHT22;3522;50.856;7.278;2023-07-28T11:27:10;22.00;99.90
6964;DHT22;3522;50.856;7.278;2023-07-28T11:29:37;21.90;99.90
6964;DHT22;3522;50.856;7.278;2023-07-28T11:32:04;21.90;99.90
6964;DHT22;3522;50.856;7.278;2023-07-28T11:34:33;21.80;99.90
6964;DHT22;3522;50.856;7.278;2023-07-28T11:37:01;21.90;99.90
6964;DHT22;3522;50.856;7.278;2023-07-28T11:39:30;21.80;99.90
6964;DHT22;3522;50.856;7.278;2023-07-28T11:41:59;21.80;99.90
6964;DHT22;3522;50.856;7.278;2023-07-28T11:44:25;21.90;99.90
6964;DHT22;3522;50.856;7.278;2023-07-28T11:46:52;21.90;99.90
6964;DHT22;3522;50.856;7.278;2023-07-28T11:49:20;22.00;99.90
6964;DHT22;3522;50.856;7.278;2023-07-28T11:51:48;22.10;99.90
6964;DHT22;3522;50.856;7.278;2023-07-28T11:54:15;22.20;99.90
6964;DHT22;3522;50.856;7.278;2023-07-28T11:56:43;22.30;99.90
6964;DHT22;3522;50.856;7.278;2023-07-28T11:59:11;22.20;99.90
6964;DHT22;3522;50.856;7.278;2023-07-28T12:01:50;22.40;99.90
6964;DHT22;3522;50.856;7.278;2023-07-28T12:04:21;22.30;99.90
6964;DHT22;3522;50.856;7.278;2023-07-28T12:07:04;22.50;99.90
6964;DHT22;3522;50.856;7.278;2023-07-28T12:09:32;22.60;99.90
6964;DHT22;3522;50.856;7.278;2023-07-28T12:11:58;22.60;99.90
6964;DHT22;3522;50.856;7.278;2023-07-28T12:14:35;22.70;99.90
6964;DHT22;3522;50.856;7.278;2023-07-28T12:17:03;22.60;99.90
6964;DHT22;3522;50.856;7.278;2023-07-28T12:19:40;22.70;99.90
6964;DHT22;3522;50.856;7.278;2023-07-28T12:22:06;22.70;99.90
6964;DHT22;3522;50.856;7.278;2023-07-28T12:24:33;22.80;99.90
6964;DHT22;3522;50.856;7.278;2023-07-28T12:27:00;22.80;99.90
6964;DHT22;3522;50.856;7.278;2023-07-28T12:29:26;22.70;99.90
6964;DHT22;3522;50.856;7.278;2023-07-28T12:31:54;22.80;99.90
6964;DHT22;3522;50.856;7.278;2023-07-28T12:34:21;22.70;99.90
6964;DHT22;3522;50.856;7.278;2023-07-28T12:36:47;22.70;99.90
6964;DHT22;3522;50.856;7.278;2023-07-28T12:39:16;22.70;99.90
6964;DHT22;3522;50.856;7.278;2023-07-28T12:41:42;23.00;99.90
6964;DHT22;3522;50.856;7.278;2023-07-28T12:44:10;23.40;99.90
6964;DHT22;3522;50.856;7.278;2023-07-28T12:46:36;23.70;99.90
6964;DHT22;3522;50.856;7.278;2023-07-28T12:49:04;24.10;99.90
6964;DHT22;3522;50.856;7.278;2023-07-28T12:51:32;24.40;99.90
6964;DHT22;3522;50.856;7.278;2023-07-28T12:53:59;24.50;99.90
6964;DHT22;3522;50.856;7.278;2023-07-28T12:56:25;24.40;99.90
6964;DHT22;3522;50.856;7.278;2023-07-28T12:58:52;24.40;99.90
6964;DHT22;3522;50.856;7.278;2023-07-28T13:01:18;24.50;99.90
6964;DHT22;3522;50.856;7.278;2023-07-28T13:03:45;24.40;99.90
6964;DHT22;3522;50.856;7.278;2023-07-28T13:06:13;24.40;99.90
6964;DHT22;3522;50.856;7.278;2023-07-28T13:08:40;24.60;99.90
6964;DHT22;3522;50.856;7.278;2023-07-28T13:11:06;24.60;99.90
6964;DHT22;3522;50.856;7.278;2023-07-28T13:13:33;24.60;99.90
6964;DHT22;3522;50.856;7.278;2023-07-28T13:16:00;24.70;99.90
6964;DHT22;3522;50.856;7.278;2023-07-28T13:18:26;24.70;99.90
6964;DHT22;3522;50.856;7.278;2023-07-28T13:20:54;24.80;99.90
6964;DHT22;3522;50.856;7.278;2023-07-28T13:23:22;24.70;99.90
6964;DHT22;3522;50.856;7.278;2023-07-28T13:25:49;24.50;99.90
6964;DHT22;3522;50.856;7.278;2023-07-28T13:28:16;24.40;99.90
6964;DHT22;3522;50.856;7.278;2023-07-28T13:30:42;24.50;99.90
6964;DHT22;3522;50.856;7.278;2023-07-28T13:33:09;24.30;99.90
6964;DHT22;3522;50.856;7.278;2023-07-28T13:35:36;24.30;99.90
6964;DHT22;3522;50.856;7.278;2023-07-28T13:38:02;24.00;99.90
6964;DHT22;3522;50.856;7.278;2023-07-28T13:40:30;23.70;99.90
6964;DHT22;3522;50.856;7.278;2023-07-28T13:42:57;23.50;99.90
6964;DHT22;3522;50.856;7.278;2023-07-28T13:45:23;23.40;99.90
6964;DHT22;3522;50.856;7.278;2023-07-28T13:47:50;23.50;99.90
6964;DHT22;3522;50.856;7.278;2023-07-28T13:50:17;23.40;99.90
6964;DHT22;3522;50.856;7.278;2023-07-28T13:52:43;23.50;99.90
6964;DHT22;3522;50.856;7.278;2023-07-28T13:55:10;23.50;99.90
6964;DHT22;3522;50.856;7.278;2023-07-28T13:57:38;23.60;99.90
6964;DHT22;3522;50.856;7.278;2023-07-28T14:00:05;23.70;99.90
6964;DHT22;3522;50.856;7.278;2023-07-28T14:02:34;23.80;99.90
6964;DHT22;3522;50.856;7.278;2023-07-28T14:05:00;23.80;99.90
6964;DHT22;3522;50.856;7.278;2023-07-28T14:07:27;23.60;99.90
6964;DHT22;3522;50.856;7.278;2023-07-28T14:09:54;23.70;99.90
6964;DHT22;3522;50.856;7.278;2023-07-28T14:12:20;23.70;99.90
6964;DHT22;3522;50.856;7.278;2023-07-28T14:14:48;23.50;99.90
6964;DHT22;3522;50.856;7.278;2023-07-28T14:17:15;23.30;99.90
6964;DHT22;3522;50.856;7.278;2023-07-28T14:19:42;23.20;99.90
6964;DHT22;3522;50.856;7.278;2023-07-28T14:22:09;23.00;99.90
6964;DHT22;3522;50.856;7.278;2023-07-28T14:24:35;22.70;99.90
6964;DHT22;3522;50.856;7.278;2023-07-28T14:27:02;22.40;99.90
6964;DHT22;3522;50.856;7.278;2023-07-28T14:29:29;22.00;99.90
6964;DHT22;3522;50.856;7.278;2023-07-28T14:31:57;21.80;99.90
6964;DHT22;3522;50.856;7.278;2023-07-28T14:34:23;21.40;99.90
6964;DHT22;3522;50.856;7.278;2023-07-28T14:36:50;21.20;99.90
6964;DHT22;3522;50.856;7.278;2023-07-28T14:39:16;21.00;99.90
6964;DHT22;3522;50.856;7.278;2023-07-28T14:41:43;20.80;99.90
6964;DHT22;3522;50.856;7.278;2023-07-28T14:44:09;20.70;99.90
6964;DHT22;3522;50.856;7.278;2023-07-28T14:46:36;20.80;99.90
6964;DHT22;3522;50.856;7.278;2023-07-28T14:49:04;20.90;99.90
6964;DHT22;3522;50.856;7.278;2023-07-28T14:51:30;21.00;99.90
6964;DHT22;3522;50.856;7.278;2023-07-28T14:53:57;21.10;99.90
6964;DHT22;3522;50.856;7.278;2023-07-28T14:56:24;21.30;99.90
6964;DHT22;3522;50.856;7.278;2023-07-28T14:58:50;21.50;99.90
6964;DHT22;3522;50.856;7.278;2023-07-28T15:01:18;21.80;99.90
6964;DHT22;3522;50.856;7.278;2023-07-28T15:03:45;22.10;99.90
6964;DHT22;3522;50.856;7.278;2023-07-28T15:06:13;22.40;99.90
6964;DHT22;3522;50.856;7.278;2023-07-28T15:08:39;22.50;99.90
6964;DHT22;3522;50.856;7.278;2023-07-28T15:11:06;22.60;99.90
6964;DHT22;3522;50.856;7.278;2023-07-28T15:13:33;22.50;99.90
6964;DHT22;3522;50.856;7.278;2023-07-28T15:15:59;22.30;99.90
6964;DHT22;3522;50.856;7.278;2023-07-28T15:18:26;22.30;99.90
6964;DHT22;3522;50.856;7.278;2023-07-28T15:20:53;22.40;99.90
6964;DHT22;3522;50.856;7.278;2023-07-28T15:23:22;22.40;99.90
6964;DHT22;3522;50.856;7.278;2023-07-28T15:25:49;22.40;99.90
6964;DHT22;3522;50.856;7.278;2023-07-28T15:28:18;22.40;99.90
6964;DHT22;3522;50.856;7.278;2023-07-28T15:30:44;22.50;99.90
6964;DHT22;3522;50.856;7.278;2023-07-28T15:33:14;22.50;99.90
6964;DHT22;3522;50.856;7.278;2023-07-28T15:35:41;22.40;99.90
6964;DHT22;3522;50.856;7.278;2023-07-28T15:38:08;22.40;99.90
6964;DHT22;3522;50.856;7.278;2023-07-28T15:40:36;22.50;99.90
6964;DHT22;3522;50.856;7.278;2023-07-28T15:43:02;22.40;99.90
6964;DHT22;3522;50.856;7.278;2023-07-28T15:45:29;22.40;99.90
6964;DHT22;3522;50.856;7.278;2023-07-28T15:47:56;22.60;99.90
6964;DHT22;3522;50.856;7.278;2023-07-28T15:50:23;22.70;99.90
6964;DHT22;3522;50.856;7.278;2023-07-28T15:52:50;23.00;99.90
6964;DHT22;3522;50.856;7.278;2023-07-28T15:55:17;23.20;99.90
6964;DHT22;3522;50.856;7.278;2023-07-28T15:57:45;23.50;99.90
6964;DHT22;3522;50.856;7.278;2023-07-28T16:00:12;23.70;99.90
6964;DHT22;3522;50.856;7.278;2023-07-28T16:02:39;24.00;99.90
6964;DHT22;3522;50.856;7.278;2023-07-28T16:05:07;24.30;99.90